Time;durP1;ratioP1;P1;durP2;ratioP2;P2;SDS_P1;SDS_P2;PMS_P1;PMS_P2;Temp;Humidity;BMP_temperature;BMP_pressure;BME280_temperature;BME280_humidity;BME280_pressure;Samples;Min_cycle;Max_cycle;Signal;HPM_P1;HPM_P2
2022/10/29 00:01:56;;;;;;;13.23;4.65;;;11.90;99.90;;;;;;5097406;28;20052;-84
2022/10/29 00:04:21;;;;;;;16.02;4.47;;;11.90;99.90;;;;;;5115188;28;20047;-84
2022/10/29 00:06:47;;;;;;;8.73;4.50;;;11.90;99.90;;;;;;5114178;28;20047;-84
2022/10/29 00:09:13;;;;;;;15.13;4.47;;;11.90;99.90;;;;;;5114751;28;20494;-84
2022/10/29 00:11:39;;;;;;;12.07;4.78;;;11.90;99.90;;;;;;5113834;28;20040;-84
2022/10/29 00:14:04;;;;;;;13.65;4.60;;;11.90;99.90;;;;;;5115045;28;20051;-84
2022/10/29 00:16:38;;;;;;;11.80;4.72;;;11.90;99.90;;;;;;5114939;28;20043;-84
2022/10/29 00:19:05;;;;;;;13.82;5.20;;;11.80;99.90;;;;;;5097086;28;20047;-84
2022/10/29 00:21:30;;;;;;;12.15;5.00;;;11.80;99.90;;;;;;5114682;28;20122;-84
2022/10/29 00:23:57;;;;;;;10.95;4.47;;;11.80;99.90;;;;;;5114723;28;20518;-84
2022/10/29 00:26:23;;;;;;;15.07;4.95;;;11.80;99.90;;;;;;5113644;28;20047;-84
2022/10/29 00:28:54;;;;;;;14.80;4.78;;;11.90;99.90;;;;;;5114667;28;20068;-84
2022/10/29 00:31:23;;;;;;;11.98;4.05;;;11.90;99.90;;;;;;5113823;28;20395;-84
2022/10/29 00:33:49;;;;;;;9.88;4.53;;;11.80;99.90;;;;;;5114624;28;20047;-84
2022/10/29 00:36:17;;;;;;;13.93;4.88;;;11.70;99.90;;;;;;5114682;28;20048;-84
2022/10/29 00:38:43;;;;;;;10.15;4.65;;;11.80;99.90;;;;;;5113701;28;20079;-84
2022/10/29 00:41:11;;;;;;;10.77;4.07;;;11.80;99.90;;;;;;5097348;28;20044;-84
2022/10/29 00:43:39;;;;;;;16.73;4.47;;;11.80;99.90;;;;;;5113217;28;20490;-84
2022/10/29 00:46:11;;;;;;;12.23;4.35;;;11.80;99.90;;;;;;5114569;28;20051;-84
2022/10/29 00:48:43;;;;;;;11.68;4.47;;;11.80;99.90;;;;;;5114542;28;20043;-84
2022/10/29 00:51:11;;;;;;;11.23;4.07;;;11.70;99.90;;;;;;5114451;28;20039;-83
2022/10/29 00:53:42;;;;;;;9.32;4.25;;;11.90;99.90;;;;;;5114296;28;20043;-84
2022/10/29 00:56:07;;;;;;;13.70;4.10;;;11.70;99.90;;;;;;5114447;28;20513;-84
2022/10/29 00:58:34;;;;;;;9.07;4.30;;;11.70;99.90;;;;;;5114531;28;20126;-84
2022/10/29 01:01:00;;;;;;;15.80;4.75;;;11.70;99.90;;;;;;5113288;28;20047;-84
2022/10/29 01:03:25;;;;;;;17.70;4.95;;;11.60;99.90;;;;;;5114283;28;20043;-84
2022/10/29 01:05:52;;;;;;;11.50;4.78;;;11.60;99.90;;;;;;5113461;28;20039;-84
2022/10/29 01:08:18;;;;;;;;;;;11.60;99.90;;;;;;5114705;28;20498;-84
2022/10/29 01:11:02;;;;;;;10.75;4.15;;;11.50;99.90;;;;;;5113006;28;19928;-84
2022/10/29 01:13:42;;;;;;;12.07;4.70;;;11.50;99.90;;;;;;5114165;28;20047;-84
2022/10/29 01:16:39;;;;;;;10.98;4.70;;;11.50;99.90;;;;;;5114023;28;20402;-84
2022/10/29 01:19:20;;;;;;;9.68;4.28;;;11.40;99.90;;;;;;5114301;28;20135;-84
2022/10/29 01:21:52;;;;;;;12.20;5.25;;;11.40;99.90;;;;;;5115109;28;20513;-84
2022/10/29 01:25:03;;;;;;;24.58;6.10;;;11.60;99.90;;;;;;5118157;28;20108;-84
2022/10/29 01:27:35;;;;;;;11.10;4.95;;;11.30;99.90;;;;;;5118217;28;20078;-83
2022/10/29 01:30:19;;;;;;;10.38;5.53;;;11.30;99.90;;;;;;5118291;28;20044;-84
2022/10/29 01:33:23;;;;;;;13.88;5.05;;;11.20;99.90;;;;;;5116994;28;20442;-84
2022/10/29 01:35:53;;;;;;;16.10;5.15;;;11.20;99.90;;;;;;5093643;28;20123;-84
2022/10/29 01:38:27;;;;;;;13.15;4.95;;;11.10;99.90;;;;;;5117624;28;20514;-84
2022/10/29 01:41:11;;;;;;;13.10;5.30;;;11.10;99.90;;;;;;5117139;28;20081;-84
2022/10/29 01:43:52;;;;;;;10.00;4.45;;;11.10;99.90;;;;;;5118247;27;20369;-84
2022/10/29 01:46:27;;;;;;;9.48;4.63;;;11.10;99.90;;;;;;5117868;28;20048;-84
2022/10/29 01:48:59;;;;;;;11.45;5.35;;;11.10;99.90;;;;;;5116794;28;20036;-84
2022/10/29 01:51:31;;;;;;;16.95;5.30;;;11.00;99.90;;;;;;5117611;27;20483;-84
2022/10/29 01:53:59;;;;;;;11.60;4.95;;;11.00;99.90;;;;;;5117836;28;20050;-84
2022/10/29 01:56:24;;;;;;;13.63;5.13;;;11.00;99.90;;;;;;5118111;28;20108;-83
2022/10/29 01:58:53;;;;;;;14.65;5.65;;;10.90;99.90;;;;;;5117609;28;20039;-84
2022/10/29 02:01:43;;;;;;;14.43;4.90;;;10.80;99.90;;;;;;5116345;28;20047;-84
2022/10/29 02:04:23;;;;;;;11.98;5.35;;;10.90;99.90;;;;;;5116658;28;20130;-84
2022/10/29 02:07:01;;;;;;;31.73;6.07;;;10.80;99.90;;;;;;5117373;28;20044;-84
2022/10/29 02:09:49;;;;;;;14.57;4.95;;;10.80;99.90;;;;;;5116393;28;20052;-84
2022/10/29 02:12:22;;;;;;;10.98;4.88;;;10.70;99.90;;;;;;5117214;28;20036;-84
2022/10/29 02:15:02;;;;;;;16.00;5.82;;;10.70;99.90;;;;;;5117559;28;20483;-84
2022/10/29 02:17:33;;;;;;;12.10;5.45;;;10.60;99.90;;;;;;5117050;28;20433;-84
2022/10/29 02:20:04;;;;;;;17.00;5.88;;;10.60;99.90;;;;;;5117285;28;20490;-84
2022/10/29 02:22:29;;;;;;;10.65;5.10;;;10.50;99.90;;;;;;5117182;28;20112;-84
2022/10/29 02:24:55;;;;;;;11.75;5.38;;;10.40;99.90;;;;;;5117020;28;20094;-84
2022/10/29 02:27:20;;;;;;;12.25;5.60;;;10.50;99.90;;;;;;5115716;28;20051;-84
2022/10/29 02:29:46;;;;;;;15.68;5.38;;;10.50;99.90;;;;;;5117383;28;20087;-84
2022/10/29 02:32:11;;;;;;;15.07;5.18;;;10.80;99.90;;;;;;5098833;28;20039;-84
2022/10/29 02:34:37;;;;;;;10.70;5.82;;;10.50;99.90;;;;;;5115071;28;20382;-84
2022/10/29 02:37:02;;;;;;;13.63;4.88;;;10.50;99.90;;;;;;5116895;28;20044;-84
2022/10/29 02:39:29;;;;;;;15.82;5.43;;;10.50;99.90;;;;;;5116768;28;20050;-84
2022/10/29 02:41:55;;;;;;;9.45;5.28;;;10.40;99.90;;;;;;5116689;28;20070;-84
2022/10/29 02:44:20;;;;;;;15.25;5.40;;;10.50;99.90;;;;;;5116648;28;20495;-83
2022/10/29 02:46:46;;;;;;;14.75;6.22;;;10.50;99.90;;;;;;5116512;28;20112;-84
2022/10/29 02:49:11;;;;;;;18.30;6.78;;;10.40;99.90;;;;;;5115469;28;20079;-84
2022/10/29 02:51:37;;;;;;;12.00;5.80;;;10.40;99.90;;;;;;5116641;28;20368;-84
2022/10/29 02:54:03;;;;;;;20.33;5.55;;;10.40;99.90;;;;;;5116612;28;20043;-84
2022/10/29 02:56:28;;;;;;;12.00;5.50;;;10.40;99.90;;;;;;5115620;28;20097;-84
2022/10/29 02:58:54;;;;;;;11.27;5.50;;;10.40;99.90;;;;;;5116533;28;20051;-84
2022/10/29 03:01:19;;;;;;;12.05;5.30;;;10.30;99.90;;;;;;5116771;28;20046;-84
2022/10/29 03:03:45;;;;;;;26.83;5.50;;;10.40;99.90;;;;;;5115614;28;20050;-84
2022/10/29 03:06:12;;;;;;;23.45;5.70;;;10.30;99.90;;;;;;5115472;28;20044;-84
2022/10/29 03:08:38;;;;;;;13.80;5.55;;;10.30;99.90;;;;;;5116054;28;20522;-84
2022/10/29 03:11:03;;;;;;;9.18;5.25;;;10.20;99.90;;;;;;5115792;28;20039;-84
2022/10/29 03:13:29;;;;;;;11.40;5.40;;;10.20;99.90;;;;;;5115997;28;20044;-84
2022/10/29 03:15:55;;;;;;;13.68;5.28;;;10.20;99.90;;;;;;5115955;28;20514;-84
2022/10/29 03:18:20;;;;;;;15.38;5.75;;;10.10;99.90;;;;;;5115032;28;20039;-84
2022/10/29 03:20:46;;;;;;;18.92;6.03;;;10.10;99.90;;;;;;5114987;28;20134;-84
2022/10/29 03:23:12;;;;;;;15.43;5.18;;;10.10;99.90;;;;;;5114927;28;20064;-84
2022/10/29 03:25:38;;;;;;;16.17;5.40;;;10.10;99.90;;;;;;5114778;28;20051;-84
2022/10/29 03:28:03;;;;;;;12.02;5.05;;;10.10;99.90;;;;;;5116087;28;20083;-83
2022/10/29 03:30:29;;;;;;;13.88;5.95;;;10.10;99.90;;;;;;5115642;28;20430;-84
2022/10/29 03:32:55;;;;;;;17.50;5.75;;;10.10;99.90;;;;;;5115589;28;20047;-84
2022/10/29 03:35:20;;;;;;;12.85;5.22;;;10.00;99.90;;;;;;5097801;28;20052;-84
2022/10/29 03:37:50;;;;;;;16.38;5.95;;;10.10;99.90;;;;;;5114902;28;20395;-84
2022/10/29 03:40:16;;;;;;;16.30;5.78;;;10.10;99.90;;;;;;5115493;28;20122;-84
2022/10/29 03:42:42;;;;;;;13.52;5.90;;;10.10;99.90;;;;;;5115895;28;20035;-84
2022/10/29 03:45:08;;;;;;;14.73;6.13;;;10.10;99.90;;;;;;5114199;28;20509;-84
2022/10/29 03:47:34;;;;;;;;;;;10.10;99.90;;;;;;5116117;28;20450;-84
2022/10/29 03:50:00;;;;;;;11.10;6.00;;;10.10;99.90;;;;;;5115394;27;19920;-84
2022/10/29 03:52:26;;;;;;;19.85;6.78;;;10.60;99.90;;;;;;5115365;28;20096;-84
2022/10/29 03:54:52;;;;;;;12.48;5.82;;;10.10;99.90;;;;;;5113844;28;20043;-84
2022/10/29 03:57:17;;;;;;;13.35;6.55;;;10.10;99.90;;;;;;5114233;28;20039;-84
2022/10/29 03:59:43;;;;;;;16.73;7.55;;;10.20;99.90;;;;;;5097388;28;20040;-84
2022/10/29 04:02:09;;;;;;;16.77;6.72;;;10.20;99.90;;;;;;5115029;28;20089;-84
2022/10/29 04:04:34;;;;;;;19.05;6.78;;;10.30;99.90;;;;;;5113784;28;20040;-84
2022/10/29 04:07:00;;;;;;;20.95;7.13;;;10.30;99.90;;;;;;5113855;28;20548;-84
2022/10/29 04:09:25;;;;;;;15.07;7.63;;;10.40;99.90;;;;;;5115022;28;20050;-84
2022/10/29 04:11:51;;;;;;;17.25;7.70;;;10.40;99.90;;;;;;5115303;28;20463;-84
2022/10/29 04:14:16;;;;;;;15.75;6.90;;;10.50;99.90;;;;;;5115529;28;20043;-84
2022/10/29 04:16:42;;;;;;;13.73;8.18;;;10.50;99.90;;;;;;5114130;28;20071;-84
2022/10/29 04:19:08;;;;;;;25.85;8.23;;;10.70;99.90;;;;;;5114027;28;20502;-84
2022/10/29 04:21:33;;;;;;;18.88;7.63;;;10.50;99.90;;;;;;5114933;28;20085;-84
2022/10/29 04:23:59;;;;;;;19.20;7.93;;;10.60;99.90;;;;;;5114724;28;20044;-84
2022/10/29 04:26:24;;;;;;;17.30;8.05;;;10.60;99.90;;;;;;5114462;28;20387;-84
2022/10/29 04:28:51;;;;;;;15.57;7.18;;;10.70;99.90;;;;;;5114622;28;20052;-84
2022/10/29 04:31:17;;;;;;;13.80;6.97;;;10.70;99.90;;;;;;5114540;28;20107;-84
2022/10/29 04:33:43;;;;;;;13.82;8.00;;;11.20;99.90;;;;;;5096657;28;20048;-84
2022/10/29 04:36:09;;;;;;;13.73;7.83;;;10.80;99.90;;;;;;5114501;28;20079;-84
2022/10/29 04:38:34;;;;;;;20.10;8.00;;;10.80;99.90;;;;;;5114620;28;20086;-84
2022/10/29 04:41:01;;;;;;;18.85;9.07;;;10.90;99.90;;;;;;5114456;28;20039;-84
2022/10/29 04:43:27;;;;;;;16.35;8.52;;;10.90;99.90;;;;;;5113636;28;20047;-84
2022/10/29 04:45:55;;;;;;;19.33;8.98;;;10.90;99.90;;;;;;5113511;28;20090;-84
2022/10/29 04:48:22;;;;;;;14.40;8.88;;;11.00;99.90;;;;;;5114449;28;20135;-84
2022/10/29 04:50:49;;;;;;;20.52;8.38;;;11.10;99.90;;;;;;5114324;28;20047;-84
2022/10/29 04:53:15;;;;;;;15.10;8.95;;;11.10;99.90;;;;;;5113302;28;20053;-84
2022/10/29 04:55:41;;;;;;;15.50;8.73;;;11.20;99.90;;;;;;5096931;28;20086;-84
2022/10/29 04:58:11;;;;;;;28.02;10.73;;;11.10;99.90;;;;;;5113195;28;20040;-84
2022/10/29 05:00:36;;;;;;;24.63;10.18;;;11.70;99.90;;;;;;5114707;28;20047;-84
2022/10/29 05:03:02;;;;;;;25.63;8.32;;;11.30;99.90;;;;;;5113075;28;20540;-84
2022/10/29 05:05:28;;;;;;;13.23;8.07;;;11.30;99.90;;;;;;5096349;28;20047;-79
2022/10/29 05:08:01;;;;;;;17.67;8.77;;;11.30;99.90;;;;;;5114234;28;20044;-83
2022/10/29 05:10:32;;;;;;;23.67;9.23;;;11.20;99.90;;;;;;5113104;28;20050;-81
2022/10/29 05:13:00;;;;;;;24.90;9.30;;;11.20;99.90;;;;;;5114209;28;20075;-83
2022/10/29 05:15:30;;;;;;;20.75;9.05;;;11.30;99.90;;;;;;5114124;28;20052;-86
2022/10/29 05:17:56;;;;;;;33.88;10.00;;;11.20;99.90;;;;;;5114073;28;20040;-77
2022/10/29 05:20:23;;;;;;;22.27;10.07;;;11.30;99.90;;;;;;5112857;28;20047;-77
2022/10/29 05:22:49;;;;;;;19.83;9.20;;;11.30;99.90;;;;;;5114342;28;20176;-77
2022/10/29 05:25:15;;;;;;;21.92;9.05;;;11.30;99.90;;;;;;5114041;28;20092;-77
2022/10/29 05:27:41;;;;;;;22.95;10.25;;;11.30;99.90;;;;;;5114254;28;20456;-77
2022/10/29 05:30:07;;;;;;;17.52;8.82;;;11.30;99.90;;;;;;5114190;28;20118;-77
2022/10/29 05:32:33;;;;;;;24.42;9.60;;;11.30;99.90;;;;;;5113638;28;20047;-77
2022/10/29 05:34:58;;;;;;;20.92;9.20;;;11.30;99.90;;;;;;5127477;28;20498;-79
2022/10/29 05:37:25;;;;;;;19.38;9.63;;;11.30;99.90;;;;;;5133879;28;20538;-84
2022/10/29 05:39:50;;;;;;;33.90;11.43;;;11.30;99.90;;;;;;5134682;27;20050;-82
2022/10/29 05:42:16;;;;;;;39.97;12.18;;;11.30;99.90;;;;;;5134795;28;20475;-83
2022/10/29 05:44:42;;;;;;;32.53;11.68;;;11.40;99.90;;;;;;5133878;28;20039;-85
2022/10/29 05:47:07;;;;;;;27.90;10.82;;;11.30;99.90;;;;;;5134589;28;20086;-83
2022/10/29 05:49:33;;;;;;;24.40;10.70;;;11.40;99.90;;;;;;5133346;28;20463;-86
2022/10/29 05:51:59;;;;;;;39.75;11.70;;;11.40;99.90;;;;;;5132980;28;20036;-83
2022/10/29 05:54:24;;;;;;;46.35;12.60;;;11.50;99.90;;;;;;5116032;28;20047;-82
2022/10/29 05:56:50;;;;;;;36.88;11.93;;;11.40;99.90;;;;;;5132997;28;20051;-81
2022/10/29 05:59:15;;;;;;;31.98;13.80;;;11.40;99.90;;;;;;5134143;28;20039;-76
2022/10/29 06:01:41;;;;;;;46.42;13.25;;;11.50;99.90;;;;;;5134566;28;20040;-83
2022/10/29 06:04:06;;;;;;;30.77;12.20;;;11.40;99.90;;;;;;5134138;28;20043;-74
2022/10/29 06:06:32;;;;;;;37.95;13.15;;;11.40;99.90;;;;;;5134123;28;20051;-79
2022/10/29 06:08:58;;;;;;;37.87;13.90;;;11.50;99.90;;;;;;5136432;27;20137;-83
2022/10/29 06:11:24;;;;;;;43.57;14.83;;;11.50;99.90;;;;;;5122065;27;20055;-83
2022/10/29 06:13:54;;;;;;;38.30;15.20;;;11.60;99.90;;;;;;5117106;28;20047;-84
2022/10/29 06:16:20;;;;;;;34.97;13.02;;;11.50;99.90;;;;;;5115795;28;20062;-84
2022/10/29 06:18:45;;;;;;;34.03;14.23;;;11.50;99.90;;;;;;5115877;28;20130;-84
2022/10/29 06:21:11;;;;;;;34.88;13.55;;;11.50;99.90;;;;;;5117045;28;20118;-84
2022/10/29 06:23:36;;;;;;;42.92;13.48;;;11.50;99.90;;;;;;5117197;28;20471;-84
2022/10/29 06:26:02;;;;;;;34.10;12.93;;;11.50;99.90;;;;;;5116079;28;20031;-84
2022/10/29 06:28:28;;;;;;;44.75;13.80;;;11.60;99.90;;;;;;5098694;28;20055;-84
2022/10/29 06:30:53;;;;;;;29.95;13.48;;;11.50;99.90;;;;;;5116824;28;20047;-84
2022/10/29 06:33:20;;;;;;;35.60;12.45;;;11.50;99.90;;;;;;5098727;28;20488;-84
2022/10/29 06:35:46;;;;;;;34.07;13.87;;;11.50;99.90;;;;;;5115437;28;20048;-84
2022/10/29 06:38:12;;;;;;;31.90;13.20;;;11.50;99.90;;;;;;5115569;28;20042;-85
2022/10/29 06:40:37;;;;;;;41.40;14.73;;;11.50;99.90;;;;;;5115967;28;20285;-84
2022/10/29 06:43:05;;;;;;;32.17;12.73;;;11.60;99.90;;;;;;5116923;28;20043;-85
2022/10/29 06:45:31;;;;;;;33.10;13.38;;;11.60;99.90;;;;;;5115721;28;20035;-85
2022/10/29 06:47:57;;;;;;;35.40;13.63;;;11.50;99.90;;;;;;5115779;28;20109;-84
2022/10/29 06:50:23;;;;;;;33.65;13.73;;;11.60;99.90;;;;;;5115489;28;20413;-84
2022/10/29 06:53:03;;;;;;;31.23;12.90;;;11.60;99.90;;;;;;5115258;28;20043;-85
2022/10/29 06:55:29;;;;;;;27.15;12.65;;;11.60;99.90;;;;;;5115361;28;20043;-84
2022/10/29 06:57:56;;;;;;;25.00;13.40;;;11.60;99.90;;;;;;5115375;28;20043;-84
2022/10/29 07:00:22;;;;;;;26.15;13.52;;;11.60;99.90;;;;;;5115545;28;20108;-85
2022/10/29 07:02:48;;;;;;;32.20;13.80;;;11.70;99.90;;;;;;5116533;28;20469;-84
2022/10/29 07:05:13;;;;;;;33.05;13.77;;;11.70;99.90;;;;;;5116323;28;20053;-85
2022/10/29 07:07:39;;;;;;;25.65;12.65;;;11.80;99.90;;;;;;5116206;28;20044;-85
2022/10/29 07:10:05;;;;;;;32.35;14.15;;;11.80;99.90;;;;;;5115357;28;20055;-84
2022/10/29 07:12:30;;;;;;;28.40;13.43;;;11.80;99.90;;;;;;5116605;28;20123;-84
2022/10/29 07:14:56;;;;;;;29.20;12.77;;;12.00;99.90;;;;;;5116274;28;20035;-84
2022/10/29 07:17:21;;;;;;;27.13;12.57;;;11.90;99.90;;;;;;5116087;28;20090;-84
2022/10/29 07:19:47;;;;;;;27.30;12.43;;;11.90;99.90;;;;;;5114523;28;20043;-84
2022/10/29 07:22:12;;;;;;;18.58;11.68;;;11.90;99.90;;;;;;5115441;28;20052;-84
2022/10/29 07:24:38;;;;;;;18.58;11.73;;;12.00;99.90;;;;;;5116072;28;20047;-83
2022/10/29 07:27:06;;;;;;;26.23;12.02;;;12.00;99.90;;;;;;5114696;28;20122;-84
2022/10/29 07:29:31;;;;;;;19.48;12.45;;;12.10;99.90;;;;;;5115834;28;20058;-85
2022/10/29 07:31:57;;;;;;;21.40;12.82;;;12.00;99.90;;;;;;5114628;28;20122;-85
2022/10/29 07:34:22;;;;;;;18.42;12.45;;;12.10;99.90;;;;;;5097767;28;20039;-84
2022/10/29 07:36:48;;;;;;;22.65;13.48;;;12.10;99.90;;;;;;5115612;28;20535;-84
2022/10/29 07:39:14;;;;;;;19.25;13.05;;;12.10;99.90;;;;;;5115725;28;20079;-85
2022/10/29 07:41:40;;;;;;;22.70;12.75;;;12.10;99.90;;;;;;5115371;28;20079;-85
2022/10/29 07:44:06;;;;;;;18.83;12.45;;;12.20;99.90;;;;;;5097490;28;20104;-84
2022/10/29 07:46:31;;;;;;;21.52;13.00;;;12.20;99.90;;;;;;5114267;28;20047;-85
2022/10/29 07:48:57;;;;;;;27.38;12.73;;;12.30;99.90;;;;;;5114332;28;20044;-85
2022/10/29 07:51:22;;;;;;;27.98;13.40;;;12.30;99.90;;;;;;5114256;28;20047;-85
2022/10/29 07:53:48;;;;;;;22.00;13.02;;;12.30;99.90;;;;;;5114267;28;20475;-84
2022/10/29 07:56:13;;;;;;;21.00;13.20;;;12.40;99.90;;;;;;5114765;28;20043;-84
2022/10/29 07:58:39;;;;;;;23.50;13.60;;;12.40;99.90;;;;;;5115204;28;20554;-85
2022/10/29 08:01:05;;;;;;;20.30;12.77;;;12.50;99.90;;;;;;5115187;28;20040;-84
2022/10/29 08:03:30;;;;;;;31.40;15.25;;;12.60;99.90;;;;;;5114244;28;20078;-85
2022/10/29 08:05:56;;;;;;;25.20;14.40;;;12.60;99.90;;;;;;5114885;28;20089;-84
2022/10/29 08:08:22;;;;;;;30.80;15.03;;;12.70;99.90;;;;;;5115234;28;20044;-84
2022/10/29 08:10:47;;;;;;;29.07;15.77;;;12.80;99.90;;;;;;5114929;28;20043;-84
2022/10/29 08:13:13;;;;;;;32.22;16.85;;;12.90;99.90;;;;;;5115126;28;20100;-85
2022/10/29 08:15:38;;;;;;;32.08;17.55;;;13.00;99.90;;;;;;5115132;28;20047;-85
2022/10/29 08:18:14;;;;;;;35.03;17.85;;;13.10;99.90;;;;;;5113642;28;20048;-84
2022/10/29 08:20:40;;;;;;;31.92;17.67;;;13.10;99.90;;;;;;5114211;28;20047;-84
2022/10/29 08:23:06;;;;;;;35.60;17.67;;;13.20;99.90;;;;;;5113838;28;20047;-84
2022/10/29 08:25:31;;;;;;;36.03;18.07;;;13.20;99.90;;;;;;5096794;28;20052;-84
2022/10/29 08:28:02;;;;;;;36.40;17.58;;;13.30;99.90;;;;;;5114550;28;20056;-84
2022/10/29 08:30:28;;;;;;;36.42;19.08;;;13.30;99.90;;;;;;5114441;28;20039;-84
2022/10/29 08:32:53;;;;;;;32.97;17.90;;;13.40;99.90;;;;;;5113741;28;20043;-84
2022/10/29 08:35:19;;;;;;;35.92;18.23;;;13.40;99.90;;;;;;5113512;28;20046;-85
2022/10/29 08:37:45;;;;;;;33.45;18.85;;;13.50;99.90;;;;;;5114409;28;20047;-84
2022/10/29 08:40:38;;;;;;;30.40;18.35;;;13.50;99.90;;;;;;5113253;28;20122;-85
2022/10/29 08:43:34;;;;;;;35.78;18.58;;;13.60;99.90;;;;;;5113572;28;20055;-84
2022/10/29 08:46:00;;;;;;;41.75;19.50;;;13.70;99.90;;;;;;5113495;28;20059;-84
2022/10/29 08:48:38;;;;;;;30.83;18.10;;;13.90;99.90;;;;;;5114507;28;20043;-84
2022/10/29 08:51:26;;;;;;;33.67;18.70;;;14.00;99.90;;;;;;5113396;28;20454;-84
2022/10/29 08:53:54;;;;;;;32.20;18.60;;;13.90;99.90;;;;;;5113520;28;20127;-85
2022/10/29 08:56:38;;;;;;;43.55;18.77;;;14.30;99.90;;;;;;5114262;28;20043;-85
2022/10/29 08:59:25;;;;;;;41.10;18.38;;;14.30;99.90;;;;;;5114613;28;20054;-84
2022/10/29 09:01:54;;;;;;;31.60;18.48;;;14.30;99.90;;;;;;5112665;28;20059;-85
2022/10/29 09:04:37;;;;;;;34.97;18.00;;;14.40;99.90;;;;;;5114074;28;20040;-84
2022/10/29 09:07:14;;;;;;;40.65;18.40;;;14.50;99.90;;;;;;5095985;28;20055;-84
2022/10/29 09:09:54;;;;;;;26.52;16.25;;;15.00;99.90;;;;;;5096438;28;20078;-85
2022/10/29 09:12:20;;;;;;;27.70;16.67;;;14.70;99.90;;;;;;5114410;28;20047;-85
2022/10/29 09:14:57;;;;;;;34.97;16.93;;;14.70;99.90;;;;;;5113162;28;20040;-85
2022/10/29 09:18:01;;;;;;;36.13;17.15;;;15.00;99.90;;;;;;5114456;28;20054;-84
2022/10/29 09:20:44;;;;;;;35.42;17.65;;;14.90;99.90;;;;;;5114021;28;20051;-84
2022/10/29 09:23:57;;;;;;;29.60;16.13;;;15.00;99.90;;;;;;5112458;28;20496;-84
2022/10/29 09:26:44;;;;;;;28.23;14.73;;;15.10;99.90;;;;;;5030954;28;20613;-85
2022/10/29 09:29:31;;;;;;;28.95;16.40;;;15.20;99.90;;;;;;5015709;28;20057;-84
2022/10/29 09:32:07;;;;;;;24.93;14.27;;;15.20;99.90;;;;;;5099097;28;20051;-84
2022/10/29 09:34:48;;;;;;;33.90;14.85;;;15.30;99.90;;;;;;5113207;28;20092;-85
2022/10/29 09:37:43;;;;;;;22.20;14.40;;;15.50;99.90;;;;;;5112962;28;20044;-84
2022/10/29 09:40:31;;;;;;;34.17;14.93;;;15.50;99.90;;;;;;5061832;28;20051;-85
2022/10/29 09:43:00;;;;;;;29.20;13.73;;;15.60;99.90;;;;;;5115098;28;20048;-85
2022/10/29 09:45:52;;;;;;;22.88;12.95;;;16.00;99.90;;;;;;5117940;28;20047;-84
2022/10/29 09:48:28;;;;;;;22.40;12.27;;;15.70;99.90;;;;;;5116261;28;20119;-84
2022/10/29 09:51:19;;;;;;;24.70;11.57;;;16.00;99.90;;;;;;5116509;28;20052;-84
2022/10/29 09:53:44;;;;;;;23.55;11.60;;;16.10;99.90;;;;;;5116732;28;20764;-85
2022/10/29 09:56:10;;;;;;;20.80;11.33;;;16.30;99.90;;;;;;5117760;27;20046;-84
2022/10/29 09:58:40;;;;;;;17.77;10.55;;;16.30;99.90;;;;;;5116718;28;20108;-84
2022/10/29 10:01:06;;;;;;;20.90;11.68;;;16.40;99.90;;;;;;5117676;28;20043;-84
2022/10/29 10:03:37;;;;;;;19.03;11.47;;;16.40;99.90;;;;;;5116771;28;20047;-85
2022/10/29 10:06:08;;;;;;;23.52;11.52;;;16.60;99.90;;;;;;5117406;28;20131;-85
2022/10/29 10:08:54;;;;;;;26.15;12.18;;;16.70;99.90;;;;;;5116447;28;20124;-84
2022/10/29 10:11:20;;;;;;;24.73;12.27;;;16.70;99.90;;;;;;5117113;28;21081;-85
2022/10/29 10:13:52;;;;;;;19.07;12.00;;;16.80;99.90;;;;;;5116399;28;20047;-84
2022/10/29 10:16:28;;;;;;;25.30;11.65;;;16.80;99.90;;;;;;5117114;28;20089;-84
2022/10/29 10:18:54;;;;;;;24.90;12.17;;;16.90;99.90;;;;;;5117322;28;20447;-84
2022/10/29 10:21:25;;;;;;;23.38;12.38;;;17.00;99.90;;;;;;5116055;28;20286;-84
2022/10/29 10:23:52;;;;;;;24.63;11.82;;;17.00;99.90;;;;;;5116881;28;20099;-84
2022/10/29 10:26:46;;;;;;;20.98;11.50;;;17.00;99.90;;;;;;5116115;28;20047;-85
2022/10/29 10:29:20;;;;;;;21.02;11.23;;;17.10;99.90;;;;;;5117844;28;20059;-84
2022/10/29 10:31:54;;;;;;;22.92;11.13;;;17.20;99.90;;;;;;5117360;28;20040;-85
2022/10/29 10:34:20;;;;;;;18.00;11.43;;;17.20;99.90;;;;;;5116543;28;20055;-84
2022/10/29 10:36:50;;;;;;;18.47;11.30;;;17.30;99.90;;;;;;5116787;28;20039;-84
2022/10/29 10:39:43;;;;;;;21.67;11.95;;;17.40;99.90;;;;;;5115967;28;20047;-84
2022/10/29 10:42:26;;;;;;;20.13;10.77;;;17.60;99.90;;;;;;5104963;28;20043;-84
2022/10/29 10:45:00;;;;;;;21.92;11.32;;;17.70;99.90;;;;;;5117028;28;20079;-84
2022/10/29 10:47:30;;;;;;;20.45;10.95;;;17.70;99.90;;;;;;5116569;28;20491;-84
2022/10/29 10:50:31;;;;;;;19.73;11.50;;;17.80;99.90;;;;;;5116543;28;20498;-84
2022/10/29 10:53:18;;;;;;;21.25;11.13;;;17.80;99.90;;;;;;5114335;28;20043;-84
2022/10/29 10:55:51;;;;;;;24.63;11.82;;;18.10;99.90;;;;;;5113822;28;20066;-84
2022/10/29 10:58:26;;;;;;;28.67;13.18;;;17.90;99.90;;;;;;5116504;27;20039;-84
2022/10/29 11:01:00;;;;;;;20.58;12.38;;;18.10;99.90;;;;;;5115163;28;20104;-85
2022/10/29 11:03:43;;;;;;;26.95;12.13;;;18.20;99.90;;;;;;5115205;28;20051;-84
2022/10/29 11:06:14;;;;;;;20.20;11.82;;;18.30;99.90;;;;;;5115050;28;20097;-84
2022/10/29 11:08:51;;;;;;;24.45;12.35;;;18.30;99.90;;;;;;5116205;28;20039;-84
2022/10/29 11:11:21;;;;;;;26.63;12.57;;;18.40;99.90;;;;;;5118936;28;20055;-84
2022/10/29 11:13:49;;;;;;;30.38;12.07;;;18.40;99.90;;;;;;5130679;28;20395;-84
2022/10/29 11:16:38;;;;;;;24.65;12.95;;;18.40;99.90;;;;;;5130196;28;20051;-84
2022/10/29 11:19:26;;;;;;;24.45;12.73;;;18.50;99.90;;;;;;5124004;28;20061;-83
2022/10/29 11:22:04;;;;;;;25.55;13.15;;;18.40;99.90;;;;;;5128446;28;20047;-85
2022/10/29 11:25:01;;;;;;;24.08;13.00;;;18.50;99.90;;;;;;5127558;28;20063;-84
2022/10/29 11:27:52;;;;;;;29.48;13.38;;;18.50;99.90;;;;;;5117067;28;20052;-85
2022/10/29 11:30:18;;;;;;;29.65;13.30;;;18.50;99.90;;;;;;5115625;28;20411;-84
2022/10/29 11:33:08;;;;;;;26.90;13.68;;;18.40;99.90;;;;;;5115459;28;20047;-84
2022/10/29 11:35:57;;;;;;;29.10;14.25;;;18.50;99.90;;;;;;5115585;28;20051;-84
2022/10/29 11:38:40;;;;;;;28.88;13.80;;;18.40;99.90;;;;;;5115467;28;20127;-84
2022/10/29 11:41:20;;;;;;;28.73;13.85;;;18.50;99.90;;;;;;5114096;28;20047;-84
2022/10/29 11:43:48;;;;;;;23.38;13.35;;;18.40;99.90;;;;;;5098235;28;20055;-84
2022/10/29 11:46:41;;;;;;;25.38;13.95;;;18.40;99.90;;;;;;5115469;28;20051;-85
2022/10/29 11:49:12;;;;;;;31.92;13.75;;;18.40;99.90;;;;;;5115415;28;20048;-84
2022/10/29 11:52:02;;;;;;;27.73;13.70;;;18.30;99.90;;;;;;5115805;28;20047;-84
2022/10/29 11:54:44;;;;;;;27.90;13.48;;;18.40;99.90;;;;;;5115354;28;20047;-84
2022/10/29 11:57:15;;;;;;;29.20;13.25;;;18.50;99.90;;;;;;5114335;28;20043;-84
2022/10/29 12:00:08;;;;;;;24.48;13.18;;;18.50;99.90;;;;;;5097247;28;20093;-84
2022/10/29 12:03:06;;;;;;;23.17;12.77;;;18.60;99.90;;;;;;5114391;28;20059;-85
2022/10/29 12:05:40;;;;;;;25.38;13.98;;;18.70;99.90;;;;;;5114226;28;20048;-84
2022/10/29 12:08:09;;;;;;;29.40;13.70;;;18.90;99.90;;;;;;5114116;28;20043;-84
2022/10/29 12:10:47;;;;;;;27.52;13.73;;;18.90;99.90;;;;;;5115371;28;20083;-84
2022/10/29 12:13:18;;;;;;;33.75;14.25;;;18.90;99.90;;;;;;5114236;28;20044;-84
2022/10/29 12:16:13;;;;;;;28.90;13.80;;;18.80;99.90;;;;;;5115166;28;20040;-84
2022/10/29 12:18:51;;;;;;;37.20;14.38;;;18.90;99.90;;;;;;5114907;27;20050;-84
2022/10/29 12:21:39;;;;;;;27.77;13.85;;;18.80;99.90;;;;;;5114768;28;20044;-84
2022/10/29 12:24:38;;;;;;;27.58;13.38;;;18.80;99.90;;;;;;5114814;28;20047;-84
2022/10/29 12:27:26;;;;;;;25.23;13.25;;;18.80;99.90;;;;;;5113454;28;20051;-84
2022/10/29 12:30:05;;;;;;;30.80;14.10;;;18.90;99.90;;;;;;5114469;28;20574;-84
2022/10/29 12:32:50;;;;;;;27.98;13.70;;;18.90;99.90;;;;;;5114904;28;20044;-84
2022/10/29 12:35:28;;;;;;;26.92;13.13;;;19.00;99.90;;;;;;5114592;28;20161;-84
2022/10/29 12:38:05;;;;;;;25.52;12.55;;;19.10;99.90;;;;;;5097234;28;20058;-84
2022/10/29 12:40:33;;;;;;;;;;;19.10;99.90;;;;;;5097355;28;20059;-84
2022/10/29 12:43:04;;;;;;;24.13;12.45;;;19.20;99.90;;;;;;5113616;28;20276;-84
2022/10/29 12:45:53;;;;;;;29.40;12.95;;;19.10;99.90;;;;;;5113454;28;20039;-84
2022/10/29 12:48:35;;;;;;;23.95;13.35;;;19.10;99.90;;;;;;5114671;28;20050;-85
2022/10/29 12:51:15;;;;;;;21.98;12.13;;;19.10;99.90;;;;;;5113410;28;20134;-84
2022/10/29 12:54:04;;;;;;;23.10;12.30;;;19.10;99.90;;;;;;5113384;28;20047;-84
2022/10/29 12:56:30;;;;;;;23.23;12.68;;;19.10;99.90;;;;;;5097139;28;20063;-84